sensor_id;sensor_type;location;lat;lon;timestamp;P1;durP1;ratioP1;P2;durP2;ratioP2
61903;SDS011;47857;52.270;6.804;2023-06-22T00:01:03;15.32;;;13.18;;
61903;SDS011;47857;52.270;6.804;2023-06-22T00:03:29;16.88;;;13.85;;
61903;SDS011;47857;52.270;6.804;2023-06-22T00:05:54;15.20;;;13.60;;
61903;SDS011;47857;52.270;6.804;2023-06-22T00:08:21;15.80;;;13.20;;
61903;SDS011;47857;52.270;6.804;2023-06-22T00:10:47;19.60;;;14.65;;
61903;SDS011;47857;52.270;6.804;2023-06-22T00:13:12;17.58;;;14.05;;
61903;SDS011;47857;52.270;6.804;2023-06-22T00:15:39;16.90;;;14.13;;
61903;SDS011;47857;52.270;6.804;2023-06-22T00:18:06;17.05;;;13.65;;
61903;SDS011;47857;52.270;6.804;2023-06-22T00:20:32;14.00;;;12.60;;
61903;SDS011;47857;52.270;6.804;2023-06-22T00:22:58;14.77;;;13.27;;
61903;SDS011;47857;52.270;6.804;2023-06-22T00:25:24;15.10;;;12.98;;
61903;SDS011;47857;52.270;6.804;2023-06-22T00:27:49;17.55;;;14.10;;
61903;SDS011;47857;52.270;6.804;2023-06-22T00:30:15;18.92;;;14.65;;
61903;SDS011;47857;52.270;6.804;2023-06-22T00:32:42;16.15;;;13.90;;
61903;SDS011;47857;52.270;6.804;2023-06-22T00:35:08;18.88;;;14.55;;
61903;SDS011;47857;52.270;6.804;2023-06-22T00:37:35;20.02;;;14.50;;
61903;SDS011;47857;52.270;6.804;2023-06-22T00:40:01;18.83;;;14.40;;
61903;SDS011;47857;52.270;6.804;2023-06-22T00:42:28;16.77;;;14.95;;
61903;SDS011;47857;52.270;6.804;2023-06-22T00:44:54;19.50;;;15.98;;
61903;SDS011;47857;52.270;6.804;2023-06-22T00:47:20;17.45;;;15.65;;
61903;SDS011;47857;52.270;6.804;2023-06-22T00:49:46;17.75;;;15.90;;
61903;SDS011;47857;52.270;6.804;2023-06-22T00:52:16;17.08;;;15.27;;
61903;SDS011;47857;52.270;6.804;2023-06-22T00:54:46;18.73;;;16.38;;
61903;SDS011;47857;52.270;6.804;2023-06-22T00:57:15;19.73;;;17.40;;
61903;SDS011;47857;52.270;6.804;2023-06-22T00:59:43;19.20;;;17.20;;
61903;SDS011;47857;52.270;6.804;2023-06-22T01:02:09;20.90;;;18.65;;
61903;SDS011;47857;52.270;6.804;2023-06-22T01:04:35;20.30;;;17.98;;
61903;SDS011;47857;52.270;6.804;2023-06-22T01:07:21;20.27;;;18.17;;
61903;SDS011;47857;52.270;6.804;2023-06-22T01:09:57;21.63;;;18.67;;
61903;SDS011;47857;52.270;6.804;2023-06-22T01:12:51;21.55;;;18.67;;
61903;SDS011;47857;52.270;6.804;2023-06-22T01:15:28;21.75;;;19.45;;
61903;SDS011;47857;52.270;6.804;2023-06-22T01:18:02;19.77;;;17.73;;
61903;SDS011;47857;52.270;6.804;2023-06-22T01:20:29;23.08;;;20.60;;
61903;SDS011;47857;52.270;6.804;2023-06-22T01:23:05;22.15;;;19.73;;
61903;SDS011;47857;52.270;6.804;2023-06-22T01:28:19;24.85;;;21.52;;
61903;SDS011;47857;52.270;6.804;2023-06-22T01:30:49;23.70;;;21.17;;
61903;SDS011;47857;52.270;6.804;2023-06-22T01:33:28;23.67;;;21.13;;
61903;SDS011;47857;52.270;6.804;2023-06-22T01:35:54;25.77;;;21.00;;
61903;SDS011;47857;52.270;6.804;2023-06-22T01:38:20;24.80;;;22.17;;
61903;SDS011;47857;52.270;6.804;2023-06-22T01:40:46;22.35;;;20.08;;
61903;SDS011;47857;52.270;6.804;2023-06-22T01:43:12;25.58;;;22.95;;
61903;SDS011;47857;52.270;6.804;2023-06-22T01:45:38;23.40;;;20.95;;
61903;SDS011;47857;52.270;6.804;2023-06-22T01:48:03;24.92;;;22.33;;
61903;SDS011;47857;52.270;6.804;2023-06-22T01:50:29;28.10;;;23.45;;
61903;SDS011;47857;52.270;6.804;2023-06-22T01:52:55;25.75;;;22.25;;
61903;SDS011;47857;52.270;6.804;2023-06-22T01:55:20;27.38;;;23.20;;
61903;SDS011;47857;52.270;6.804;2023-06-22T01:57:48;26.10;;;23.30;;
61903;SDS011;47857;52.270;6.804;2023-06-22T02:00:17;24.95;;;22.30;;
61903;SDS011;47857;52.270;6.804;2023-06-22T02:03:01;26.08;;;23.27;;
61903;SDS011;47857;52.270;6.804;2023-06-22T02:05:31;26.73;;;23.23;;
61903;SDS011;47857;52.270;6.804;2023-06-22T02:08:15;26.52;;;22.33;;
61903;SDS011;47857;52.270;6.804;2023-06-22T02:10:46;24.73;;;21.92;;
61903;SDS011;47857;52.270;6.804;2023-06-22T02:16:55;29.70;;;24.33;;
61903;SDS011;47857;52.270;6.804;2023-06-22T02:19:24;23.42;;;20.98;;
61903;SDS011;47857;52.270;6.804;2023-06-22T02:21:51;27.48;;;24.50;;
61903;SDS011;47857;52.270;6.804;2023-06-22T02:24:19;27.65;;;24.70;;
61903;SDS011;47857;52.270;6.804;2023-06-22T02:26:48;28.80;;;25.67;;
61903;SDS011;47857;52.270;6.804;2023-06-22T02:29:14;28.98;;;24.42;;
61903;SDS011;47857;52.270;6.804;2023-06-22T02:31:41;29.75;;;26.10;;
61903;SDS011;47857;52.270;6.804;2023-06-22T02:34:07;28.13;;;24.92;;
61903;SDS011;47857;52.270;6.804;2023-06-22T02:36:32;28.67;;;24.55;;
61903;SDS011;47857;52.270;6.804;2023-06-22T02:38:59;31.98;;;27.55;;
61903;SDS011;47857;52.270;6.804;2023-06-22T02:41:26;27.08;;;23.98;;
61903;SDS011;47857;52.270;6.804;2023-06-22T02:43:55;26.90;;;23.40;;
61903;SDS011;47857;52.270;6.804;2023-06-22T02:46:20;29.98;;;26.77;;
61903;SDS011;47857;52.270;6.804;2023-06-22T02:48:47;28.48;;;24.48;;
61903;SDS011;47857;52.270;6.804;2023-06-22T02:51:13;30.45;;;25.58;;
61903;SDS011;47857;52.270;6.804;2023-06-22T02:53:40;29.40;;;26.23;;
61903;SDS011;47857;52.270;6.804;2023-06-22T02:56:10;28.85;;;25.77;;
61903;SDS011;47857;52.270;6.804;2023-06-22T02:58:36;31.67;;;28.15;;
61903;SDS011;47857;52.270;6.804;2023-06-22T03:01:06;31.80;;;28.20;;
61903;SDS011;47857;52.270;6.804;2023-06-22T03:03:33;33.63;;;29.88;;
61903;SDS011;47857;52.270;6.804;2023-06-22T03:05:58;32.95;;;29.38;;
61903;SDS011;47857;52.270;6.804;2023-06-22T03:08:26;34.00;;;29.63;;
61903;SDS011;47857;52.270;6.804;2023-06-22T03:10:52;29.70;;;26.13;;
61903;SDS011;47857;52.270;6.804;2023-06-22T03:13:19;34.67;;;30.15;;
61903;SDS011;47857;52.270;6.804;2023-06-22T03:15:44;32.75;;;29.10;;
61903;SDS011;47857;52.270;6.804;2023-06-22T03:18:11;31.23;;;27.70;;
61903;SDS011;47857;52.270;6.804;2023-06-22T03:20:36;34.63;;;30.23;;
61903;SDS011;47857;52.270;6.804;2023-06-22T03:23:02;36.88;;;29.17;;
61903;SDS011;47857;52.270;6.804;2023-06-22T03:25:28;35.45;;;31.08;;
61903;SDS011;47857;52.270;6.804;2023-06-22T03:27:54;35.50;;;30.92;;
61903;SDS011;47857;52.270;6.804;2023-06-22T03:30:21;30.45;;;27.00;;
61903;SDS011;47857;52.270;6.804;2023-06-22T03:32:47;34.30;;;30.63;;
61903;SDS011;47857;52.270;6.804;2023-06-22T03:35:13;34.55;;;30.80;;
61903;SDS011;47857;52.270;6.804;2023-06-22T03:37:39;34.85;;;28.67;;
61903;SDS011;47857;52.270;6.804;2023-06-22T03:40:05;34.92;;;30.83;;
61903;SDS011;47857;52.270;6.804;2023-06-22T03:42:33;35.50;;;30.85;;
61903;SDS011;47857;52.270;6.804;2023-06-22T03:45:01;37.58;;;31.05;;
61903;SDS011;47857;52.270;6.804;2023-06-22T03:47:28;33.67;;;29.40;;
61903;SDS011;47857;52.270;6.804;2023-06-22T03:49:54;34.92;;;30.20;;
61903;SDS011;47857;52.270;6.804;2023-06-22T03:52:20;33.92;;;28.52;;
61903;SDS011;47857;52.270;6.804;2023-06-22T03:54:47;37.45;;;30.73;;
61903;SDS011;47857;52.270;6.804;2023-06-22T03:57:13;35.97;;;30.55;;
61903;SDS011;47857;52.270;6.804;2023-06-22T03:59:38;36.97;;;31.30;;
61903;SDS011;47857;52.270;6.804;2023-06-22T04:02:04;35.22;;;29.38;;
61903;SDS011;47857;52.270;6.804;2023-06-22T04:04:29;32.53;;;28.40;;
61903;SDS011;47857;52.270;6.804;2023-06-22T04:06:55;37.95;;;29.80;;
61903;SDS011;47857;52.270;6.804;2023-06-22T04:09:20;39.90;;;32.33;;
61903;SDS011;47857;52.270;6.804;2023-06-22T04:11:47;38.70;;;33.55;;
61903;SDS011;47857;52.270;6.804;2023-06-22T04:14:12;42.63;;;34.90;;
61903;SDS011;47857;52.270;6.804;2023-06-22T04:16:38;35.90;;;29.45;;
61903;SDS011;47857;52.270;6.804;2023-06-22T04:19:04;40.40;;;33.53;;
61903;SDS011;47857;52.270;6.804;2023-06-22T04:21:29;36.63;;;30.42;;
61903;SDS011;47857;52.270;6.804;2023-06-22T04:23:55;40.70;;;35.08;;
61903;SDS011;47857;52.270;6.804;2023-06-22T04:26:20;30.73;;;25.38;;
61903;SDS011;47857;52.270;6.804;2023-06-22T04:28:46;36.97;;;30.40;;
61903;SDS011;47857;52.270;6.804;2023-06-22T04:31:17;37.40;;;31.92;;
61903;SDS011;47857;52.270;6.804;2023-06-22T04:33:44;37.40;;;31.02;;
61903;SDS011;47857;52.270;6.804;2023-06-22T04:36:10;37.42;;;31.08;;
61903;SDS011;47857;52.270;6.804;2023-06-22T04:38:38;37.10;;;29.88;;
61903;SDS011;47857;52.270;6.804;2023-06-22T04:41:04;40.17;;;33.72;;
61903;SDS011;47857;52.270;6.804;2023-06-22T04:43:30;36.47;;;32.15;;
61903;SDS011;47857;52.270;6.804;2023-06-22T04:45:58;36.22;;;29.80;;
61903;SDS011;47857;52.270;6.804;2023-06-22T04:48:29;33.80;;;27.87;;
61903;SDS011;47857;52.270;6.804;2023-06-22T04:50:58;38.47;;;28.40;;
61903;SDS011;47857;52.270;6.804;2023-06-22T04:53:32;33.67;;;28.85;;
61903;SDS011;47857;52.270;6.804;2023-06-22T04:55:58;40.20;;;32.92;;
61903;SDS011;47857;52.270;6.804;2023-06-22T04:58:23;32.58;;;26.42;;
61903;SDS011;47857;52.270;6.804;2023-06-22T05:00:52;34.83;;;28.83;;
61903;SDS011;47857;52.270;6.804;2023-06-22T05:03:17;37.72;;;31.88;;
61903;SDS011;47857;52.270;6.804;2023-06-22T05:05:43;40.40;;;32.03;;
61903;SDS011;47857;52.270;6.804;2023-06-22T05:08:09;37.42;;;29.85;;
61903;SDS011;47857;52.270;6.804;2023-06-22T05:10:34;34.05;;;30.08;;
61903;SDS011;47857;52.270;6.804;2023-06-22T05:13:00;34.70;;;28.75;;
61903;SDS011;47857;52.270;6.804;2023-06-22T05:15:26;30.98;;;26.42;;
61903;SDS011;47857;52.270;6.804;2023-06-22T05:17:55;32.05;;;27.15;;
61903;SDS011;47857;52.270;6.804;2023-06-22T05:20:21;32.92;;;29.30;;
61903;SDS011;47857;52.270;6.804;2023-06-22T05:22:47;32.92;;;28.67;;
61903;SDS011;47857;52.270;6.804;2023-06-22T05:25:12;29.98;;;26.73;;
61903;SDS011;47857;52.270;6.804;2023-06-22T05:27:38;30.98;;;26.33;;
61903;SDS011;47857;52.270;6.804;2023-06-22T05:30:07;25.92;;;23.05;;
61903;SDS011;47857;52.270;6.804;2023-06-22T05:32:33;31.77;;;26.85;;
61903;SDS011;47857;52.270;6.804;2023-06-22T05:34:59;27.85;;;24.77;;
61903;SDS011;47857;52.270;6.804;2023-06-22T05:37:24;29.05;;;24.52;;
61903;SDS011;47857;52.270;6.804;2023-06-22T05:39:50;29.77;;;26.58;;
61903;SDS011;47857;52.270;6.804;2023-06-22T05:42:16;30.27;;;26.48;;
61903;SDS011;47857;52.270;6.804;2023-06-22T05:44:41;30.08;;;25.92;;
61903;SDS011;47857;52.270;6.804;2023-06-22T05:47:07;32.42;;;25.85;;
61903;SDS011;47857;52.270;6.804;2023-06-22T05:49:32;27.23;;;23.40;;
61903;SDS011;47857;52.270;6.804;2023-06-22T05:51:58;27.67;;;23.35;;
61903;SDS011;47857;52.270;6.804;2023-06-22T05:54:25;24.98;;;22.15;;
61903;SDS011;47857;52.270;6.804;2023-06-22T05:56:52;28.67;;;22.58;;
61903;SDS011;47857;52.270;6.804;2023-06-22T05:59:18;27.30;;;21.80;;
61903;SDS011;47857;52.270;6.804;2023-06-22T06:01:43;24.35;;;19.90;;
61903;SDS011;47857;52.270;6.804;2023-06-22T06:04:09;25.27;;;20.73;;
61903;SDS011;47857;52.270;6.804;2023-06-22T06:06:34;23.52;;;19.77;;
61903;SDS011;47857;52.270;6.804;2023-06-22T06:09:05;23.98;;;19.10;;
61903;SDS011;47857;52.270;6.804;2023-06-22T06:11:30;21.35;;;18.33;;
61903;SDS011;47857;52.270;6.804;2023-06-22T06:13:56;21.38;;;18.30;;
61903;SDS011;47857;52.270;6.804;2023-06-22T06:16:22;23.42;;;18.63;;
61903;SDS011;47857;52.270;6.804;2023-06-22T06:18:47;21.20;;;17.60;;
61903;SDS011;47857;52.270;6.804;2023-06-22T06:21:15;22.35;;;16.15;;
61903;SDS011;47857;52.270;6.804;2023-06-22T06:23:41;17.70;;;15.80;;
61903;SDS011;47857;52.270;6.804;2023-06-22T06:26:07;21.25;;;16.17;;
61903;SDS011;47857;52.270;6.804;2023-06-22T06:28:34;16.20;;;14.48;;
61903;SDS011;47857;52.270;6.804;2023-06-22T06:31:00;16.98;;;14.05;;
61903;SDS011;47857;52.270;6.804;2023-06-22T06:33:25;18.05;;;13.52;;
61903;SDS011;47857;52.270;6.804;2023-06-22T06:35:51;16.13;;;13.93;;
61903;SDS011;47857;52.270;6.804;2023-06-22T06:38:17;16.60;;;13.45;;
61903;SDS011;47857;52.270;6.804;2023-06-22T06:40:42;15.95;;;13.20;;
61903;SDS011;47857;52.270;6.804;2023-06-22T06:43:10;14.73;;;12.13;;
61903;SDS011;47857;52.270;6.804;2023-06-22T06:45:36;15.32;;;11.80;;
61903;SDS011;47857;52.270;6.804;2023-06-22T06:48:01;15.65;;;12.30;;
61903;SDS011;47857;52.270;6.804;2023-06-22T06:50:27;14.23;;;11.80;;
61903;SDS011;47857;52.270;6.804;2023-06-22T06:52:53;13.60;;;11.90;;
61903;SDS011;47857;52.270;6.804;2023-06-22T06:55:18;15.25;;;12.35;;
61903;SDS011;47857;52.270;6.804;2023-06-22T06:57:45;12.20;;;10.95;;
61903;SDS011;47857;52.270;6.804;2023-06-22T07:00:13;14.43;;;11.75;;
61903;SDS011;47857;52.270;6.804;2023-06-22T07:02:41;15.85;;;12.18;;
61903;SDS011;47857;52.270;6.804;2023-06-22T07:05:08;14.38;;;11.68;;
61903;SDS011;47857;52.270;6.804;2023-06-22T07:07:34;14.88;;;11.98;;
61903;SDS011;47857;52.270;6.804;2023-06-22T07:10:00;13.60;;;11.60;;
61903;SDS011;47857;52.270;6.804;2023-06-22T07:12:26;17.00;;;11.27;;
61903;SDS011;47857;52.270;6.804;2023-06-22T07:14:51;17.33;;;11.95;;
61903;SDS011;47857;52.270;6.804;2023-06-22T07:17:17;16.40;;;12.57;;
61903;SDS011;47857;52.270;6.804;2023-06-22T07:19:43;15.40;;;12.52;;
61903;SDS011;47857;52.270;6.804;2023-06-22T07:22:09;14.18;;;12.57;;
61903;SDS011;47857;52.270;6.804;2023-06-22T07:24:34;14.57;;;11.50;;
61903;SDS011;47857;52.270;6.804;2023-06-22T07:27:00;13.65;;;12.15;;
61903;SDS011;47857;52.270;6.804;2023-06-22T07:29:27;13.75;;;11.70;;
61903;SDS011;47857;52.270;6.804;2023-06-22T07:31:53;15.05;;;11.18;;
61903;SDS011;47857;52.270;6.804;2023-06-22T07:34:18;13.88;;;11.43;;
61903;SDS011;47857;52.270;6.804;2023-06-22T07:36:44;14.38;;;11.52;;
61903;SDS011;47857;52.270;6.804;2023-06-22T07:39:10;14.18;;;11.55;;
61903;SDS011;47857;52.270;6.804;2023-06-22T07:41:36;13.20;;;11.75;;
61903;SDS011;47857;52.270;6.804;2023-06-22T07:44:02;14.70;;;11.60;;
61903;SDS011;47857;52.270;6.804;2023-06-22T07:46:28;13.32;;;11.73;;
61903;SDS011;47857;52.270;6.804;2023-06-22T07:48:55;15.23;;;12.40;;
61903;SDS011;47857;52.270;6.804;2023-06-22T07:51:21;13.57;;;12.15;;
61903;SDS011;47857;52.270;6.804;2023-06-22T07:53:47;13.80;;;12.05;;
61903;SDS011;47857;52.270;6.804;2023-06-22T07:56:13;14.32;;;12.10;;
61903;SDS011;47857;52.270;6.804;2023-06-22T07:58:39;13.80;;;11.88;;
61903;SDS011;47857;52.270;6.804;2023-06-22T08:01:04;12.63;;;11.23;;
61903;SDS011;47857;52.270;6.804;2023-06-22T08:03:31;12.90;;;10.60;;
61903;SDS011;47857;52.270;6.804;2023-06-22T08:05:57;12.10;;;10.27;;
61903;SDS011;47857;52.270;6.804;2023-06-22T08:08:23;12.35;;;9.95;;
61903;SDS011;47857;52.270;6.804;2023-06-22T08:10:48;12.70;;;9.93;;
61903;SDS011;47857;52.270;6.804;2023-06-22T08:13:14;13.40;;;10.50;;
61903;SDS011;47857;52.270;6.804;2023-06-22T08:15:40;14.07;;;10.20;;
61903;SDS011;47857;52.270;6.804;2023-06-22T08:18:05;11.20;;;9.40;;
61903;SDS011;47857;52.270;6.804;2023-06-22T08:20:31;13.00;;;9.52;;
61903;SDS011;47857;52.270;6.804;2023-06-22T08:22:57;13.90;;;9.70;;
61903;SDS011;47857;52.270;6.804;2023-06-22T08:25:25;13.27;;;9.02;;
61903;SDS011;47857;52.270;6.804;2023-06-22T08:27:50;10.23;;;9.05;;
61903;SDS011;47857;52.270;6.804;2023-06-22T08:30:16;10.52;;;8.93;;
61903;SDS011;47857;52.270;6.804;2023-06-22T08:32:43;13.32;;;9.70;;
61903;SDS011;47857;52.270;6.804;2023-06-22T08:35:09;12.40;;;9.50;;
61903;SDS011;47857;52.270;6.804;2023-06-22T08:37:35;12.23;;;9.07;;
61903;SDS011;47857;52.270;6.804;2023-06-22T08:40:05;10.73;;;8.60;;
61903;SDS011;47857;52.270;6.804;2023-06-22T08:42:35;12.05;;;8.85;;
61903;SDS011;47857;52.270;6.804;2023-06-22T08:45:01;10.90;;;8.77;;
61903;SDS011;47857;52.270;6.804;2023-06-22T08:47:27;9.98;;;8.90;;
61903;SDS011;47857;52.270;6.804;2023-06-22T08:49:53;10.40;;;8.25;;
61903;SDS011;47857;52.270;6.804;2023-06-22T08:52:19;10.77;;;8.65;;
61903;SDS011;47857;52.270;6.804;2023-06-22T08:54:48;9.70;;;8.70;;
61903;SDS011;47857;52.270;6.804;2023-06-22T08:57:13;10.98;;;8.82;;
61903;SDS011;47857;52.270;6.804;2023-06-22T08:59:39;10.18;;;8.65;;
61903;SDS011;47857;52.270;6.804;2023-06-22T09:02:05;10.10;;;8.18;;
61903;SDS011;47857;52.270;6.804;2023-06-22T09:04:31;10.57;;;8.73;;
61903;SDS011;47857;52.270;6.804;2023-06-22T09:07:02;10.68;;;9.57;;
61903;SDS011;47857;52.270;6.804;2023-06-22T09:09:28;13.63;;;8.48;;
61903;SDS011;47857;52.270;6.804;2023-06-22T09:11:53;12.88;;;9.32;;
61903;SDS011;47857;52.270;6.804;2023-06-22T09:14:19;11.18;;;9.05;;
61903;SDS011;47857;52.270;6.804;2023-06-22T09:16:45;10.43;;;8.57;;
61903;SDS011;47857;52.270;6.804;2023-06-22T09:19:10;12.13;;;8.63;;
61903;SDS011;47857;52.270;6.804;2023-06-22T09:21:36;9.38;;;8.20;;
61903;SDS011;47857;52.270;6.804;2023-06-22T09:24:02;9.30;;;8.38;;
61903;SDS011;47857;52.270;6.804;2023-06-22T09:26:28;10.20;;;8.82;;
61903;SDS011;47857;52.270;6.804;2023-06-22T09:28:53;10.52;;;9.10;;
61903;SDS011;47857;52.270;6.804;2023-06-22T09:31:19;11.15;;;9.07;;
61903;SDS011;47857;52.270;6.804;2023-06-22T09:33:51;11.32;;;9.32;;
61903;SDS011;47857;52.270;6.804;2023-06-22T09:36:17;10.57;;;8.93;;
61903;SDS011;47857;52.270;6.804;2023-06-22T09:38:43;13.95;;;8.88;;
61903;SDS011;47857;52.270;6.804;2023-06-22T09:41:08;11.32;;;9.02;;
61903;SDS011;47857;52.270;6.804;2023-06-22T09:43:34;10.55;;;9.43;;
61903;SDS011;47857;52.270;6.804;2023-06-22T09:46:03;9.32;;;8.43;;
61903;SDS011;47857;52.270;6.804;2023-06-22T09:48:28;12.07;;;8.95;;
61903;SDS011;47857;52.270;6.804;2023-06-22T09:50:57;12.07;;;9.32;;
61903;SDS011;47857;52.270;6.804;2023-06-22T09:53:22;9.65;;;8.25;;
61903;SDS011;47857;52.270;6.804;2023-06-22T09:55:48;11.63;;;9.50;;
61903;SDS011;47857;52.270;6.804;2023-06-22T09:58:13;13.13;;;8.88;;
61903;SDS011;47857;52.270;6.804;2023-06-22T10:00:39;11.70;;;8.43;;
61903;SDS011;47857;52.270;6.804;2023-06-22T10:03:06;10.43;;;9.07;;
61903;SDS011;47857;52.270;6.804;2023-06-22T10:05:32;10.85;;;8.82;;
61903;SDS011;47857;52.270;6.804;2023-06-22T10:07:57;12.20;;;9.60;;
61903;SDS011;47857;52.270;6.804;2023-06-22T10:10:23;13.57;;;9.07;;
61903;SDS011;47857;52.270;6.804;2023-06-22T10:12:54;11.77;;;9.43;;
61903;SDS011;47857;52.270;6.804;2023-06-22T10:15:20;13.32;;;9.80;;
61903;SDS011;47857;52.270;6.804;2023-06-22T10:17:46;10.05;;;9.00;;
61903;SDS011;47857;52.270;6.804;2023-06-22T10:20:12;11.80;;;9.13;;
61903;SDS011;47857;52.270;6.804;2023-06-22T10:22:41;12.85;;;9.48;;
61903;SDS011;47857;52.270;6.804;2023-06-22T10:25:08;11.60;;;8.77;;
61903;SDS011;47857;52.270;6.804;2023-06-22T10:27:34;10.82;;;9.07;;
61903;SDS011;47857;52.270;6.804;2023-06-22T10:30:00;10.90;;;9.07;;
61903;SDS011;47857;52.270;6.804;2023-06-22T10:32:26;12.48;;;9.63;;
61903;SDS011;47857;52.270;6.804;2023-06-22T10:34:53;11.52;;;9.07;;
61903;SDS011;47857;52.270;6.804;2023-06-22T10:37:18;12.32;;;9.85;;
61903;SDS011;47857;52.270;6.804;2023-06-22T10:39:44;11.77;;;9.43;;
61903;SDS011;47857;52.270;6.804;2023-06-22T10:42:09;12.10;;;10.65;;
61903;SDS011;47857;52.270;6.804;2023-06-22T10:44:35;11.70;;;8.85;;
61903;SDS011;47857;52.270;6.804;2023-06-22T10:47:00;11.02;;;8.90;;
61903;SDS011;47857;52.270;6.804;2023-06-22T10:49:26;12.98;;;8.18;;
61903;SDS011;47857;52.270;6.804;2023-06-22T10:51:51;9.23;;;8.20;;
61903;SDS011;47857;52.270;6.804;2023-06-22T10:54:17;9.55;;;8.45;;
61903;SDS011;47857;52.270;6.804;2023-06-22T10:56:44;13.23;;;7.55;;
61903;SDS011;47857;52.270;6.804;2023-06-22T10:59:10;8.98;;;8.07;;
61903;SDS011;47857;52.270;6.804;2023-06-22T11:01:35;9.90;;;8.57;;
61903;SDS011;47857;52.270;6.804;2023-06-22T11:04:02;10.50;;;8.13;;
61903;SDS011;47857;52.270;6.804;2023-06-22T11:06:28;10.30;;;8.88;;
61903;SDS011;47857;52.270;6.804;2023-06-22T11:08:53;12.43;;;8.60;;
61903;SDS011;47857;52.270;6.804;2023-06-22T11:11:19;9.98;;;8.75;;
61903;SDS011;47857;52.270;6.804;2023-06-22T11:13:44;11.45;;;9.07;;
61903;SDS011;47857;52.270;6.804;2023-06-22T11:16:10;10.38;;;9.35;;
61903;SDS011;47857;52.270;6.804;2023-06-22T11:18:36;12.32;;;9.05;;
61903;SDS011;47857;52.270;6.804;2023-06-22T11:21:01;10.55;;;7.93;;
61903;SDS011;47857;52.270;6.804;2023-06-22T11:23:27;11.60;;;9.80;;
61903;SDS011;47857;52.270;6.804;2023-06-22T11:25:53;11.55;;;9.98;;
61903;SDS011;47857;52.270;6.804;2023-06-22T11:28:19;13.73;;;9.85;;
61903;SDS011;47857;52.270;6.804;2023-06-22T11:30:45;10.93;;;9.52;;
61903;SDS011;47857;52.270;6.804;2023-06-22T11:33:10;10.65;;;9.55;;
61903;SDS011;47857;52.270;6.804;2023-06-22T11:35:36;11.10;;;9.25;;
61903;SDS011;47857;52.270;6.804;2023-06-22T11:38:02;13.50;;;8.75;;
61903;SDS011;47857;52.270;6.804;2023-06-22T11:40:29;11.27;;;9.93;;
61903;SDS011;47857;52.270;6.804;2023-06-22T11:42:55;10.63;;;9.57;;
61903;SDS011;47857;52.270;6.804;2023-06-22T11:45:20;10.57;;;9.45;;
61903;SDS011;47857;52.270;6.804;2023-06-22T11:47:46;11.02;;;9.13;;
61903;SDS011;47857;52.270;6.804;2023-06-22T11:50:11;11.57;;;9.80;;
61903;SDS011;47857;52.270;6.804;2023-06-22T11:52:37;12.95;;;10.73;;
61903;SDS011;47857;52.270;6.804;2023-06-22T11:55:03;13.18;;;10.32;;
61903;SDS011;47857;52.270;6.804;2023-06-22T11:57:32;11.90;;;10.48;;
61903;SDS011;47857;52.270;6.804;2023-06-22T11:59:58;12.35;;;10.57;;
61903;SDS011;47857;52.270;6.804;2023-06-22T12:02:24;11.15;;;10.02;;
61903;SDS011;47857;52.270;6.804;2023-06-22T12:04:49;10.85;;;9.75;;
61903;SDS011;47857;52.270;6.804;2023-06-22T12:07:17;10.95;;;9.73;;
61903;SDS011;47857;52.270;6.804;2023-06-22T12:09:43;11.00;;;9.90;;
61903;SDS011;47857;52.270;6.804;2023-06-22T12:12:09;11.32;;;10.13;;
61903;SDS011;47857;52.270;6.804;2023-06-22T12:14:35;11.77;;;10.27;;
61903;SDS011;47857;52.270;6.804;2023-06-22T12:17:00;13.05;;;10.32;;
61903;SDS011;47857;52.270;6.804;2023-06-22T12:19:26;12.00;;;10.77;;
61903;SDS011;47857;52.270;6.804;2023-06-22T12:21:52;12.20;;;10.25;;
61903;SDS011;47857;52.270;6.804;2023-06-22T12:24:17;10.57;;;9.55;;
61903;SDS011;47857;52.270;6.804;2023-06-22T12:26:43;11.82;;;10.02;;
61903;SDS011;47857;52.270;6.804;2023-06-22T12:29:09;13.50;;;10.55;;
61903;SDS011;47857;52.270;6.804;2023-06-22T12:31:35;11.93;;;10.82;;
61903;SDS011;47857;52.270;6.804;2023-06-22T12:34:01;11.70;;;10.43;;
61903;SDS011;47857;52.270;6.804;2023-06-22T12:36:27;12.63;;;10.50;;
61903;SDS011;47857;52.270;6.804;2023-06-22T12:38:53;11.32;;;9.82;;
61903;SDS011;47857;52.270;6.804;2023-06-22T12:41:19;12.40;;;10.43;;
61903;SDS011;47857;52.270;6.804;2023-06-22T12:43:44;13.18;;;11.00;;
61903;SDS011;47857;52.270;6.804;2023-06-22T12:46:10;15.55;;;10.35;;
61903;SDS011;47857;52.270;6.804;2023-06-22T12:48:35;11.90;;;10.70;;
61903;SDS011;47857;52.270;6.804;2023-06-22T12:51:07;15.68;;;12.15;;
61903;SDS011;47857;52.270;6.804;2023-06-22T12:53:33;13.45;;;12.05;;
61903;SDS011;47857;52.270;6.804;2023-06-22T12:55:59;15.18;;;12.30;;
61903;SDS011;47857;52.270;6.804;2023-06-22T12:58:24;13.43;;;11.93;;
61903;SDS011;47857;52.270;6.804;2023-06-22T13:00:50;15.85;;;12.52;;
61903;SDS011;47857;52.270;6.804;2023-06-22T13:03:15;14.13;;;12.73;;
61903;SDS011;47857;52.270;6.804;2023-06-22T13:05:41;17.17;;;13.68;;
61903;SDS011;47857;52.270;6.804;2023-06-22T13:08:07;15.00;;;13.38;;
61903;SDS011;47857;52.270;6.804;2023-06-22T13:10:33;15.48;;;13.93;;
61903;SDS011;47857;52.270;6.804;2023-06-22T13:12:59;15.60;;;13.80;;
61903;SDS011;47857;52.270;6.804;2023-06-22T13:15:27;17.00;;;14.35;;
61903;SDS011;47857;52.270;6.804;2023-06-22T13:17:55;17.50;;;15.00;;
61903;SDS011;47857;52.270;6.804;2023-06-22T13:20:21;17.25;;;15.45;;
61903;SDS011;47857;52.270;6.804;2023-06-22T13:22:46;18.83;;;16.42;;
61903;SDS011;47857;52.270;6.804;2023-06-22T13:25:12;22.35;;;15.98;;
61903;SDS011;47857;52.270;6.804;2023-06-22T13:27:38;19.90;;;16.88;;
61903;SDS011;47857;52.270;6.804;2023-06-22T13:30:05;18.20;;;15.98;;
61903;SDS011;47857;52.270;6.804;2023-06-22T13:32:31;21.67;;;17.88;;
61903;SDS011;47857;52.270;6.804;2023-06-22T13:34:57;18.98;;;16.98;;
61903;SDS011;47857;52.270;6.804;2023-06-22T13:37:22;22.25;;;17.67;;
61903;SDS011;47857;52.270;6.804;2023-06-22T13:39:48;20.90;;;17.02;;
61903;SDS011;47857;52.270;6.804;2023-06-22T13:42:13;23.67;;;19.60;;
61903;SDS011;47857;52.270;6.804;2023-06-22T13:44:39;21.33;;;17.65;;
61903;SDS011;47857;52.270;6.804;2023-06-22T13:47:05;21.23;;;19.13;;
61903;SDS011;47857;52.270;6.804;2023-06-22T13:49:31;23.98;;;20.48;;
61903;SDS011;47857;52.270;6.804;2023-06-22T13:51:57;24.42;;;20.23;;
61903;SDS011;47857;52.270;6.804;2023-06-22T13:54:22;24.08;;;21.05;;
61903;SDS011;47857;52.270;6.804;2023-06-22T13:56:48;25.98;;;20.83;;
61903;SDS011;47857;52.270;6.804;2023-06-22T13:59:13;26.17;;;22.65;;
61903;SDS011;47857;52.270;6.804;2023-06-22T14:01:39;26.08;;;22.65;;
61903;SDS011;47857;52.270;6.804;2023-06-22T14:04:05;24.88;;;22.23;;
61903;SDS011;47857;52.270;6.804;2023-06-22T14:06:31;26.88;;;22.42;;
61903;SDS011;47857;52.270;6.804;2023-06-22T14:08:56;28.80;;;23.17;;
61903;SDS011;47857;52.270;6.804;2023-06-22T14:11:22;27.65;;;22.52;;
61903;SDS011;47857;52.270;6.804;2023-06-22T14:13:47;30.15;;;25.42;;
61903;SDS011;47857;52.270;6.804;2023-06-22T14:16:13;26.55;;;22.50;;
61903;SDS011;47857;52.270;6.804;2023-06-22T14:18:38;31.05;;;24.88;;
61903;SDS011;47857;52.270;6.804;2023-06-22T14:21:04;26.05;;;23.15;;
61903;SDS011;47857;52.270;6.804;2023-06-22T14:23:30;26.50;;;23.73;;
61903;SDS011;47857;52.270;6.804;2023-06-22T14:25:55;28.27;;;24.90;;
61903;SDS011;47857;52.270;6.804;2023-06-22T14:28:21;28.30;;;24.80;;